sensor_id;sensor_type;location;lat;lon;timestamp;temperature;humidity
14771;DHT22;7477;45.222;5.688;2022-08-04T00:02:42;28.10;55.00
14771;DHT22;7477;45.222;5.688;2022-08-04T00:06:17;28.20;55.30
14771;DHT22;7477;45.222;5.688;2022-08-04T00:09:55;28.10;54.50
14771;DHT22;7477;45.222;5.688;2022-08-04T00:13:24;28.00;54.40
14771;DHT22;7477;45.222;5.688;2022-08-04T00:16:46;28.00;54.70
14771;DHT22;7477;45.222;5.688;2022-08-04T00:20:08;27.90;54.50
14771;DHT22;7477;45.222;5.688;2022-08-04T00:23:29;27.90;54.60
14771;DHT22;7477;45.222;5.688;2022-08-04T00:26:52;27.70;54.90
14771;DHT22;7477;45.222;5.688;2022-08-04T00:30:12;27.80;55.00
14771;DHT22;7477;45.222;5.688;2022-08-04T00:33:31;27.80;54.80
14771;DHT22;7477;45.222;5.688;2022-08-04T00:36:52;27.70;54.80
14771;DHT22;7477;45.222;5.688;2022-08-04T01:06:17;27.20;58.20
14771;DHT22;7477;45.222;5.688;2022-08-04T01:17:24;27.00;58.60
14771;DHT22;7477;45.222;5.688;2022-08-04T01:31:53;26.80;58.40
14771;DHT22;7477;45.222;5.688;2022-08-04T01:35:27;26.70;58.50
14771;DHT22;7477;45.222;5.688;2022-08-04T01:38:47;26.70;59.40
14771;DHT22;7477;45.222;5.688;2022-08-04T01:42:08;26.60;59.20
14771;DHT22;7477;45.222;5.688;2022-08-04T01:45:29;26.60;59.20
14771;DHT22;7477;45.222;5.688;2022-08-04T01:48:53;26.60;59.30
14771;DHT22;7477;45.222;5.688;2022-08-04T01:52:15;26.40;59.80
14771;DHT22;7477;45.222;5.688;2022-08-04T01:55:34;26.40;59.80
14771;DHT22;7477;45.222;5.688;2022-08-04T01:58:56;26.40;59.60
14771;DHT22;7477;45.222;5.688;2022-08-04T02:02:15;26.40;59.60
14771;DHT22;7477;45.222;5.688;2022-08-04T02:05:35;26.30;59.40
14771;DHT22;7477;45.222;5.688;2022-08-04T02:12:53;26.20;60.40
14771;DHT22;7477;45.222;5.688;2022-08-04T02:20:08;26.00;63.40
14771;DHT22;7477;45.222;5.688;2022-08-04T02:23:36;26.00;63.00
14771;DHT22;7477;45.222;5.688;2022-08-04T02:26:56;26.00;62.90
14771;DHT22;7477;45.222;5.688;2022-08-04T02:30:17;26.00;63.90
14771;DHT22;7477;45.222;5.688;2022-08-04T02:33:43;25.90;64.20
14771;DHT22;7477;45.222;5.688;2022-08-04T02:37:03;25.90;64.60
14771;DHT22;7477;45.222;5.688;2022-08-04T02:40:23;25.70;65.10
14771;DHT22;7477;45.222;5.688;2022-08-04T02:43:47;25.70;63.80
14771;DHT22;7477;45.222;5.688;2022-08-04T02:47:07;25.70;64.30
14771;DHT22;7477;45.222;5.688;2022-08-04T02:50:30;25.70;64.60
14771;DHT22;7477;45.222;5.688;2022-08-04T02:53:54;25.60;65.40
14771;DHT22;7477;45.222;5.688;2022-08-04T02:57:14;25.50;66.20
14771;DHT22;7477;45.222;5.688;2022-08-04T03:00:36;25.50;66.80
14771;DHT22;7477;45.222;5.688;2022-08-04T03:07:37;25.40;67.80
14771;DHT22;7477;45.222;5.688;2022-08-04T03:52:34;25.00;69.90
14771;DHT22;7477;45.222;5.688;2022-08-04T03:56:33;25.00;70.50
14771;DHT22;7477;45.222;5.688;2022-08-04T04:03:51;24.90;70.40
14771;DHT22;7477;45.222;5.688;2022-08-04T04:18:19;25.00;70.10
14771;DHT22;7477;45.222;5.688;2022-08-04T04:22:14;25.00;70.20
14771;DHT22;7477;45.222;5.688;2022-08-04T04:40:38;24.80;72.20
14771;DHT22;7477;45.222;5.688;2022-08-04T04:48:03;24.70;71.80
14771;DHT22;7477;45.222;5.688;2022-08-04T04:51:43;24.80;71.40
14771;DHT22;7477;45.222;5.688;2022-08-04T04:55:18;24.80;71.20
14771;DHT22;7477;45.222;5.688;2022-08-04T04:58:39;24.80;71.60
14771;DHT22;7477;45.222;5.688;2022-08-04T05:06:12;24.80;72.30
14771;DHT22;7477;45.222;5.688;2022-08-04T05:13:41;24.80;71.70
14771;DHT22;7477;45.222;5.688;2022-08-04T05:18:04;24.80;72.40
14771;DHT22;7477;45.222;5.688;2022-08-04T05:20:58;24.80;73.20
14771;DHT22;7477;45.222;5.688;2022-08-04T05:24:23;24.80;73.70
14771;DHT22;7477;45.222;5.688;2022-08-04T05:28:17;24.80;73.40
14771;DHT22;7477;45.222;5.688;2022-08-04T05:31:41;24.80;74.40
14771;DHT22;7477;45.222;5.688;2022-08-04T05:35:08;24.80;75.50
14771;DHT22;7477;45.222;5.688;2022-08-04T05:38:35;24.80;76.10
14771;DHT22;7477;45.222;5.688;2022-08-04T05:41:56;24.80;77.00
14771;DHT22;7477;45.222;5.688;2022-08-04T05:45:17;24.80;76.30
14771;DHT22;7477;45.222;5.688;2022-08-04T05:48:38;24.80;76.90
14771;DHT22;7477;45.222;5.688;2022-08-04T05:52:02;24.80;76.00
14771;DHT22;7477;45.222;5.688;2022-08-04T05:55:22;24.80;76.40
14771;DHT22;7477;45.222;5.688;2022-08-04T05:58:43;24.70;77.90
14771;DHT22;7477;45.222;5.688;2022-08-04T06:02:04;24.70;78.30
14771;DHT22;7477;45.222;5.688;2022-08-04T06:05:26;24.70;76.70
14771;DHT22;7477;45.222;5.688;2022-08-04T06:08:46;24.70;77.10
14771;DHT22;7477;45.222;5.688;2022-08-04T06:12:08;24.70;77.70
14771;DHT22;7477;45.222;5.688;2022-08-04T06:15:29;24.90;78.20
14771;DHT22;7477;45.222;5.688;2022-08-04T06:18:52;25.10;77.90
14771;DHT22;7477;45.222;5.688;2022-08-04T06:22:12;25.10;78.30
14771;DHT22;7477;45.222;5.688;2022-08-04T06:25:37;25.10;78.90
14771;DHT22;7477;45.222;5.688;2022-08-04T06:28:58;25.10;78.60
14771;DHT22;7477;45.222;5.688;2022-08-04T06:32:19;25.10;78.80
14771;DHT22;7477;45.222;5.688;2022-08-04T06:36:09;25.10;78.70
14771;DHT22;7477;45.222;5.688;2022-08-04T06:39:31;25.10;78.90
14771;DHT22;7477;45.222;5.688;2022-08-04T06:42:51;25.10;78.30
14771;DHT22;7477;45.222;5.688;2022-08-04T06:46:12;25.10;78.60
14771;DHT22;7477;45.222;5.688;2022-08-04T06:49:32;25.10;78.50
14771;DHT22;7477;45.222;5.688;2022-08-04T06:52:52;25.10;78.80
14771;DHT22;7477;45.222;5.688;2022-08-04T06:56:13;25.10;79.60
14771;DHT22;7477;45.222;5.688;2022-08-04T06:59:34;25.10;79.50
14771;DHT22;7477;45.222;5.688;2022-08-04T07:02:54;25.10;79.90
14771;DHT22;7477;45.222;5.688;2022-08-04T07:06:13;25.10;80.10
14771;DHT22;7477;45.222;5.688;2022-08-04T07:09:33;25.10;79.30
14771;DHT22;7477;45.222;5.688;2022-08-04T07:12:54;25.10;78.80
14771;DHT22;7477;45.222;5.688;2022-08-04T07:16:15;25.40;77.30
14771;DHT22;7477;45.222;5.688;2022-08-04T07:19:35;25.50;76.70
14771;DHT22;7477;45.222;5.688;2022-08-04T07:22:56;25.70;75.70
14771;DHT22;7477;45.222;5.688;2022-08-04T07:26:15;25.70;74.90
14771;DHT22;7477;45.222;5.688;2022-08-04T07:29:37;25.60;75.10
14771;DHT22;7477;45.222;5.688;2022-08-04T07:32:58;25.70;75.30
14771;DHT22;7477;45.222;5.688;2022-08-04T07:36:17;25.80;73.90
14771;DHT22;7477;45.222;5.688;2022-08-04T07:39:37;25.80;74.00
14771;DHT22;7477;45.222;5.688;2022-08-04T07:42:57;25.70;73.60
14771;DHT22;7477;45.222;5.688;2022-08-04T07:46:17;25.70;73.50
14771;DHT22;7477;45.222;5.688;2022-08-04T07:49:36;25.70;74.00
14771;DHT22;7477;45.222;5.688;2022-08-04T07:52:56;25.80;73.50
14771;DHT22;7477;45.222;5.688;2022-08-04T07:56:16;25.80;73.10
14771;DHT22;7477;45.222;5.688;2022-08-04T07:59:35;26.00;72.50
14771;DHT22;7477;45.222;5.688;2022-08-04T08:02:57;26.00;72.20
14771;DHT22;7477;45.222;5.688;2022-08-04T08:06:17;26.00;72.70
14771;DHT22;7477;45.222;5.688;2022-08-04T08:09:36;26.10;72.00
14771;DHT22;7477;45.222;5.688;2022-08-04T08:12:56;26.10;71.70
14771;DHT22;7477;45.222;5.688;2022-08-04T08:16:16;26.10;72.40
14771;DHT22;7477;45.222;5.688;2022-08-04T08:19:37;26.10;72.60
14771;DHT22;7477;45.222;5.688;2022-08-04T08:23:00;26.10;71.70
14771;DHT22;7477;45.222;5.688;2022-08-04T08:26:20;26.10;71.50
14771;DHT22;7477;45.222;5.688;2022-08-04T08:29:40;26.20;71.30
14771;DHT22;7477;45.222;5.688;2022-08-04T08:33:01;26.20;71.20
14771;DHT22;7477;45.222;5.688;2022-08-04T08:36:51;26.20;71.20
14771;DHT22;7477;45.222;5.688;2022-08-04T08:40:29;26.20;71.30
14771;DHT22;7477;45.222;5.688;2022-08-04T08:51:43;26.30;71.50
14771;DHT22;7477;45.222;5.688;2022-08-04T09:06:46;26.50;70.90
14771;DHT22;7477;45.222;5.688;2022-08-04T09:10:18;26.70;73.20
14771;DHT22;7477;45.222;5.688;2022-08-04T09:13:50;26.70;71.90
14771;DHT22;7477;45.222;5.688;2022-08-04T09:17:21;26.70;72.80
14771;DHT22;7477;45.222;5.688;2022-08-04T09:24:46;26.90;71.10
14771;DHT22;7477;45.222;5.688;2022-08-04T09:28:22;26.80;73.90
14771;DHT22;7477;45.222;5.688;2022-08-04T09:35:58;27.10;70.90
14771;DHT22;7477;45.222;5.688;2022-08-04T09:39:27;27.70;69.10
14771;DHT22;7477;45.222;5.688;2022-08-04T09:46:29;28.10;68.00
14771;DHT22;7477;45.222;5.688;2022-08-04T10:00:35;28.30;67.60
14771;DHT22;7477;45.222;5.688;2022-08-04T10:04:02;28.50;66.20
14771;DHT22;7477;45.222;5.688;2022-08-04T10:11:08;28.30;67.20
14771;DHT22;7477;45.222;5.688;2022-08-04T10:21:41;28.80;65.10
14771;DHT22;7477;45.222;5.688;2022-08-04T10:28:27;29.10;63.90
14771;DHT22;7477;45.222;5.688;2022-08-04T10:32:18;29.40;63.30
14771;DHT22;7477;45.222;5.688;2022-08-04T10:36:00;29.40;63.20
14771;DHT22;7477;45.222;5.688;2022-08-04T10:39:30;29.60;62.00
14771;DHT22;7477;45.222;5.688;2022-08-04T10:46:31;29.90;61.20
14771;DHT22;7477;45.222;5.688;2022-08-04T10:50:00;30.00;60.00
14771;DHT22;7477;45.222;5.688;2022-08-04T10:53:24;30.20;59.40
14771;DHT22;7477;45.222;5.688;2022-08-04T10:56:59;30.20;59.00
14771;DHT22;7477;45.222;5.688;2022-08-04T11:00:26;30.40;56.40
14771;DHT22;7477;45.222;5.688;2022-08-04T11:03:59;30.40;56.90
14771;DHT22;7477;45.222;5.688;2022-08-04T11:07:20;30.60;56.90
14771;DHT22;7477;45.222;5.688;2022-08-04T11:11:01;30.70;57.30
14771;DHT22;7477;45.222;5.688;2022-08-04T11:14:45;30.80;56.30
14771;DHT22;7477;45.222;5.688;2022-08-04T11:18:47;30.80;56.20
14771;DHT22;7477;45.222;5.688;2022-08-04T11:36:51;31.70;53.40
14771;DHT22;7477;45.222;5.688;2022-08-04T11:40:22;31.90;53.20
14771;DHT22;7477;45.222;5.688;2022-08-04T11:43:52;32.20;52.00
14771;DHT22;7477;45.222;5.688;2022-08-04T11:50:52;32.00;52.60
14771;DHT22;7477;45.222;5.688;2022-08-04T11:54:13;32.20;51.60
14771;DHT22;7477;45.222;5.688;2022-08-04T11:57:34;32.20;51.60
14771;DHT22;7477;45.222;5.688;2022-08-04T12:04:46;32.50;51.20
14771;DHT22;7477;45.222;5.688;2022-08-04T12:11:53;32.50;51.50
14771;DHT22;7477;45.222;5.688;2022-08-04T12:15:34;32.60;51.90
14771;DHT22;7477;45.222;5.688;2022-08-04T12:18:57;32.00;52.60
14771;DHT22;7477;45.222;5.688;2022-08-04T12:22:28;32.40;51.40
14771;DHT22;7477;45.222;5.688;2022-08-04T12:25:53;32.70;50.60
14771;DHT22;7477;45.222;5.688;2022-08-04T12:29:15;32.90;50.10
14771;DHT22;7477;45.222;5.688;2022-08-04T12:36:23;32.50;50.40
14771;DHT22;7477;45.222;5.688;2022-08-04T12:39:47;33.30;48.80
14771;DHT22;7477;45.222;5.688;2022-08-04T12:43:18;33.50;47.10
14771;DHT22;7477;45.222;5.688;2022-08-04T12:46:45;33.40;48.10
14771;DHT22;7477;45.222;5.688;2022-08-04T12:50:05;33.60;47.60
14771;DHT22;7477;45.222;5.688;2022-08-04T12:53:31;33.40;47.60
14771;DHT22;7477;45.222;5.688;2022-08-04T12:56:52;33.40;47.00
14771;DHT22;7477;45.222;5.688;2022-08-04T13:00:22;33.20;47.40
14771;DHT22;7477;45.222;5.688;2022-08-04T13:07:12;33.30;46.50
14771;DHT22;7477;45.222;5.688;2022-08-04T13:10:37;33.20;46.50
14771;DHT22;7477;45.222;5.688;2022-08-04T13:13:58;33.30;46.70
14771;DHT22;7477;45.222;5.688;2022-08-04T13:17:18;33.30;46.30
14771;DHT22;7477;45.222;5.688;2022-08-04T13:20:38;33.40;46.30
14771;DHT22;7477;45.222;5.688;2022-08-04T13:24:03;33.50;45.70
14771;DHT22;7477;45.222;5.688;2022-08-04T13:27:24;33.10;47.10
14771;DHT22;7477;45.222;5.688;2022-08-04T13:30:45;33.30;46.10
14771;DHT22;7477;45.222;5.688;2022-08-04T13:34:07;33.30;46.60
14771;DHT22;7477;45.222;5.688;2022-08-04T13:37:35;33.30;45.90
14771;DHT22;7477;45.222;5.688;2022-08-04T13:40:59;32.90;46.80
14771;DHT22;7477;45.222;5.688;2022-08-04T13:44:23;33.10;46.20
14771;DHT22;7477;45.222;5.688;2022-08-04T13:47:45;33.00;47.10
14771;DHT22;7477;45.222;5.688;2022-08-04T13:51:09;32.70;46.60
14771;DHT22;7477;45.222;5.688;2022-08-04T13:54:40;32.70;47.10
14771;DHT22;7477;45.222;5.688;2022-08-04T13:58:06;32.70;46.50
14771;DHT22;7477;45.222;5.688;2022-08-04T14:01:26;32.60;47.50
14771;DHT22;7477;45.222;5.688;2022-08-04T14:04:51;32.40;47.40
14771;DHT22;7477;45.222;5.688;2022-08-04T14:08:21;32.20;47.50
14771;DHT22;7477;45.222;5.688;2022-08-04T14:11:45;32.40;46.80
14771;DHT22;7477;45.222;5.688;2022-08-04T14:15:05;32.10;48.00
14771;DHT22;7477;45.222;5.688;2022-08-04T14:18:27;31.00;51.50
14771;DHT22;7477;45.222;5.688;2022-08-04T14:21:47;30.50;52.90
14771;DHT22;7477;45.222;5.688;2022-08-04T14:25:10;30.20;54.00
14771;DHT22;7477;45.222;5.688;2022-08-04T14:28:31;30.00;54.90
14771;DHT22;7477;45.222;5.688;2022-08-04T14:31:59;29.90;55.80
14771;DHT22;7477;45.222;5.688;2022-08-04T14:35:19;29.70;56.50
14771;DHT22;7477;45.222;5.688;2022-08-04T14:42:05;29.60;58.00
14771;DHT22;7477;45.222;5.688;2022-08-04T14:49:11;29.40;59.50
14771;DHT22;7477;45.222;5.688;2022-08-04T14:52:31;29.40;59.80
14771;DHT22;7477;45.222;5.688;2022-08-04T14:55:52;29.50;59.90
14771;DHT22;7477;45.222;5.688;2022-08-04T14:59:12;29.40;60.40
14771;DHT22;7477;45.222;5.688;2022-08-04T15:02:32;29.30;60.90
14771;DHT22;7477;45.222;5.688;2022-08-04T15:05:55;29.30;61.10
14771;DHT22;7477;45.222;5.688;2022-08-04T15:09:15;29.40;61.20
14771;DHT22;7477;45.222;5.688;2022-08-04T15:12:35;29.30;61.60
14771;DHT22;7477;45.222;5.688;2022-08-04T15:15:54;29.30;61.60
14771;DHT22;7477;45.222;5.688;2022-08-04T15:19:14;29.20;62.50
14771;DHT22;7477;45.222;5.688;2022-08-04T15:22:34;29.10;63.10
14771;DHT22;7477;45.222;5.688;2022-08-04T15:25:56;29.10;63.50
14771;DHT22;7477;45.222;5.688;2022-08-04T15:29:22;29.30;63.00
14771;DHT22;7477;45.222;5.688;2022-08-04T15:32:52;29.20;63.00
14771;DHT22;7477;45.222;5.688;2022-08-04T15:36:14;29.20;63.40
14771;DHT22;7477;45.222;5.688;2022-08-04T15:39:44;29.40;63.00
14771;DHT22;7477;45.222;5.688;2022-08-04T15:50:21;29.10;63.90
14771;DHT22;7477;45.222;5.688;2022-08-04T15:57:00;29.20;64.10
14771;DHT22;7477;45.222;5.688;2022-08-04T16:00:20;29.10;64.30
14771;DHT22;7477;45.222;5.688;2022-08-04T16:03:45;29.20;64.30
14771;DHT22;7477;45.222;5.688;2022-08-04T16:07:04;29.20;64.20
14771;DHT22;7477;45.222;5.688;2022-08-04T16:17:22;29.20;64.50
14771;DHT22;7477;45.222;5.688;2022-08-04T16:20:44;29.20;64.50
14771;DHT22;7477;45.222;5.688;2022-08-04T16:27:40;29.20;64.60
14771;DHT22;7477;45.222;5.688;2022-08-04T16:31:00;29.30;64.10
14771;DHT22;7477;45.222;5.688;2022-08-04T16:34:20;29.30;64.20
14771;DHT22;7477;45.222;5.688;2022-08-04T16:37:41;29.30;64.10
14771;DHT22;7477;45.222;5.688;2022-08-04T16:41:01;29.40;64.10
14771;DHT22;7477;45.222;5.688;2022-08-04T16:44:34;29.50;63.90
14771;DHT22;7477;45.222;5.688;2022-08-04T16:48:05;29.50;64.00
14771;DHT22;7477;45.222;5.688;2022-08-04T16:51:30;29.30;64.20
14771;DHT22;7477;45.222;5.688;2022-08-04T16:54:50;29.30;64.30
14771;DHT22;7477;45.222;5.688;2022-08-04T16:58:09;29.30;64.60
14771;DHT22;7477;45.222;5.688;2022-08-04T17:01:29;29.20;64.70
14771;DHT22;7477;45.222;5.688;2022-08-04T17:04:50;29.20;64.80
14771;DHT22;7477;45.222;5.688;2022-08-04T17:08:10;29.30;64.70
14771;DHT22;7477;45.222;5.688;2022-08-04T17:11:32;29.50;64.10
14771;DHT22;7477;45.222;5.688;2022-08-04T17:14:52;29.90;63.30
14771;DHT22;7477;45.222;5.688;2022-08-04T17:18:20;30.10;62.70
14771;DHT22;7477;45.222;5.688;2022-08-04T17:21:40;30.60;61.20
14771;DHT22;7477;45.222;5.688;2022-08-04T17:24:59;30.50;61.30
14771;DHT22;7477;45.222;5.688;2022-08-04T17:28:19;30.30;61.90
14771;DHT22;7477;45.222;5.688;2022-08-04T17:31:39;30.60;61.30
14771;DHT22;7477;45.222;5.688;2022-08-04T17:35:00;30.10;61.90
14771;DHT22;7477;45.222;5.688;2022-08-04T17:38:20;29.70;63.10
14771;DHT22;7477;45.222;5.688;2022-08-04T17:41:39;29.60;63.30
14771;DHT22;7477;45.222;5.688;2022-08-04T17:45:07;29.70;63.30
14771;DHT22;7477;45.222;5.688;2022-08-04T17:48:27;29.70;63.40
14771;DHT22;7477;45.222;5.688;2022-08-04T17:51:50;29.70;63.30
14771;DHT22;7477;45.222;5.688;2022-08-04T17:55:09;29.70;63.40
14771;DHT22;7477;45.222;5.688;2022-08-04T17:58:28;29.70;63.50
14771;DHT22;7477;45.222;5.688;2022-08-04T18:05:10;29.70;63.50
14771;DHT22;7477;45.222;5.688;2022-08-04T18:08:29;29.70;63.60
14771;DHT22;7477;45.222;5.688;2022-08-04T18:12:00;29.70;63.50
14771;DHT22;7477;45.222;5.688;2022-08-04T18:15:21;29.70;63.40
14771;DHT22;7477;45.222;5.688;2022-08-04T18:18:41;29.70;63.70
14771;DHT22;7477;45.222;5.688;2022-08-04T18:22:02;29.60;64.00
14771;DHT22;7477;45.222;5.688;2022-08-04T18:25:22;29.50;64.10
14771;DHT22;7477;45.222;5.688;2022-08-04T18:28:41;29.60;63.70
14771;DHT22;7477;45.222;5.688;2022-08-04T18:32:00;29.70;62.50
14771;DHT22;7477;45.222;5.688;2022-08-04T18:35:20;29.80;63.40
14771;DHT22;7477;45.222;5.688;2022-08-04T18:38:40;29.80;63.30
14771;DHT22;7477;45.222;5.688;2022-08-04T18:41:59;29.80;63.40
14771;DHT22;7477;45.222;5.688;2022-08-04T18:45:19;29.70;63.60
14771;DHT22;7477;45.222;5.688;2022-08-04T18:48:38;29.80;63.60
14771;DHT22;7477;45.222;5.688;2022-08-04T18:51:57;30.00;61.80
14771;DHT22;7477;45.222;5.688;2022-08-04T18:55:16;30.00;62.40
14771;DHT22;7477;45.222;5.688;2022-08-04T18:58:35;29.70;63.40
14771;DHT22;7477;45.222;5.688;2022-08-04T19:01:55;29.70;63.40
14771;DHT22;7477;45.222;5.688;2022-08-04T19:05:14;29.90;62.60
14771;DHT22;7477;45.222;5.688;2022-08-04T19:08:34;29.80;62.30
14771;DHT22;7477;45.222;5.688;2022-08-04T19:11:53;30.10;60.40
14771;DHT22;7477;45.222;5.688;2022-08-04T19:15:12;30.10;61.80
14771;DHT22;7477;45.222;5.688;2022-08-04T19:18:31;29.90;62.90
14771;DHT22;7477;45.222;5.688;2022-08-04T19:21:51;30.00;62.80
14771;DHT22;7477;45.222;5.688;2022-08-04T19:25:10;30.30;63.50
14771;DHT22;7477;45.222;5.688;2022-08-04T19:28:31;29.60;63.60
14771;DHT22;7477;45.222;5.688;2022-08-04T19:31:50;29.60;63.80
14771;DHT22;7477;45.222;5.688;2022-08-04T19:35:09;29.70;63.70
14771;DHT22;7477;45.222;5.688;2022-08-04T19:38:29;29.70;63.60
14771;DHT22;7477;45.222;5.688;2022-08-04T19:41:48;29.80;63.50
14771;DHT22;7477;45.222;5.688;2022-08-04T19:45:09;29.70;63.70
14771;DHT22;7477;45.222;5.688;2022-08-04T19:48:29;29.60;63.90
14771;DHT22;7477;45.222;5.688;2022-08-04T19:51:48;29.60;64.10
14771;DHT22;7477;45.222;5.688;2022-08-04T19:55:07;29.60;63.90
14771;DHT22;7477;45.222;5.688;2022-08-04T19:58:27;29.70;63.80
14771;DHT22;7477;45.222;5.688;2022-08-04T20:01:46;29.80;63.40
14771;DHT22;7477;45.222;5.688;2022-08-04T20:05:06;29.90;63.20
14771;DHT22;7477;45.222;5.688;2022-08-04T20:08:25;29.90;62.90
14771;DHT22;7477;45.222;5.688;2022-08-04T20:11:45;29.90;63.80
14771;DHT22;7477;45.222;5.688;2022-08-04T20:15:05;29.80;63.50
14771;DHT22;7477;45.222;5.688;2022-08-04T20:18:25;29.70;63.60
14771;DHT22;7477;45.222;5.688;2022-08-04T20:21:46;29.60;63.90
14771;DHT22;7477;45.222;5.688;2022-08-04T20:25:06;29.60;64.00
14771;DHT22;7477;45.222;5.688;2022-08-04T20:28:27;29.70;63.80
14771;DHT22;7477;45.222;5.688;2022-08-04T20:31:46;29.70;63.80
14771;DHT22;7477;45.222;5.688;2022-08-04T20:35:06;29.80;63.20
14771;DHT22;7477;45.222;5.688;2022-08-04T20:38:25;29.80;61.60
14771;DHT22;7477;45.222;5.688;2022-08-04T20:41:45;29.80;61.10
14771;DHT22;7477;45.222;5.688;2022-08-04T20:45:04;29.80;61.00
14771;DHT22;7477;45.222;5.688;2022-08-04T20:48:27;29.90;62.00
14771;DHT22;7477;45.222;5.688;2022-08-04T20:51:46;29.80;60.00
14771;DHT22;7477;45.222;5.688;2022-08-04T20:55:06;29.80;60.90
14771;DHT22;7477;45.222;5.688;2022-08-04T20:58:26;29.80;62.00
14771;DHT22;7477;45.222;5.688;2022-08-04T21:01:45;29.80;60.70
14771;DHT22;7477;45.222;5.688;2022-08-04T21:05:05;29.70;60.00
14771;DHT22;7477;45.222;5.688;2022-08-04T21:08:24;29.70;60.00
14771;DHT22;7477;45.222;5.688;2022-08-04T21:11:43;29.70;60.50
14771;DHT22;7477;45.222;5.688;2022-08-04T21:15:03;29.70;61.20
14771;DHT22;7477;45.222;5.688;2022-08-04T21:18:23;29.70;60.20
14771;DHT22;7477;45.222;5.688;2022-08-04T21:21:42;29.70;61.00
14771;DHT22;7477;45.222;5.688;2022-08-04T21:25:03;29.70;61.10
14771;DHT22;7477;45.222;5.688;2022-08-04T21:28:22;29.70;60.80
14771;DHT22;7477;45.222;5.688;2022-08-04T21:31:41;29.60;60.10
14771;DHT22;7477;45.222;5.688;2022-08-04T21:35:02;29.60;59.30
14771;DHT22;7477;45.222;5.688;2022-08-04T21:38:22;29.60;58.80
14771;DHT22;7477;45.222;5.688;2022-08-04T21:41:41;29.50;59.10
14771;DHT22;7477;45.222;5.688;2022-08-04T21:45:00;29.40;59.30
14771;DHT22;7477;45.222;5.688;2022-08-04T21:48:19;29.40;59.80
14771;DHT22;7477;45.222;5.688;2022-08-04T21:51:38;29.30;59.50
14771;DHT22;7477;45.222;5.688;2022-08-04T21:54:58;29.20;59.70
14771;DHT22;7477;45.222;5.688;2022-08-04T21:58:18;29.20;59.90
14771;DHT22;7477;45.222;5.688;2022-08-04T22:01:37;29.10;59.90
14771;DHT22;7477;45.222;5.688;2022-08-04T22:04:56;29.20;59.90
14771;DHT22;7477;45.222;5.688;2022-08-04T22:08:15;29.20;60.50
14771;DHT22;7477;45.222;5.688;2022-08-04T22:11:36;29.10;60.90
14771;DHT22;7477;45.222;5.688;2022-08-04T22:14:56;29.20;61.10
14771;DHT22;7477;45.222;5.688;2022-08-04T22:18:15;29.00;62.30
14771;DHT22;7477;45.222;5.688;2022-08-04T22:21:34;29.00;62.00
14771;DHT22;7477;45.222;5.688;2022-08-04T22:24:54;28.80;62.00
14771;DHT22;7477;45.222;5.688;2022-08-04T22:28:13;28.90;61.60
14771;DHT22;7477;45.222;5.688;2022-08-04T22:31:32;29.00;61.40
14771;DHT22;7477;45.222;5.688;2022-08-04T22:34:52;28.90;62.00
14771;DHT22;7477;45.222;5.688;2022-08-04T22:38:11;29.00;62.00
14771;DHT22;7477;45.222;5.688;2022-08-04T22:41:30;28.80;62.60
14771;DHT22;7477;45.222;5.688;2022-08-04T22:44:49;28.80;63.40
14771;DHT22;7477;45.222;5.688;2022-08-04T22:48:08;28.70;64.10
14771;DHT22;7477;45.222;5.688;2022-08-04T22:51:27;28.70;64.20
14771;DHT22;7477;45.222;5.688;2022-08-04T22:54:47;28.70;64.20
14771;DHT22;7477;45.222;5.688;2022-08-04T22:58:06;28.60;65.10
14771;DHT22;7477;45.222;5.688;2022-08-04T23:01:25;28.50;65.80
14771;DHT22;7477;45.222;5.688;2022-08-04T23:04:44;28.40;66.40
14771;DHT22;7477;45.222;5.688;2022-08-04T23:08:03;28.30;65.80
14771;DHT22;7477;45.222;5.688;2022-08-04T23:11:22;28.40;65.80
14771;DHT22;7477;45.222;5.688;2022-08-04T23:14:44;28.40;65.50
14771;DHT22;7477;45.222;5.688;2022-08-04T23:18:04;28.40;66.10
14771;DHT22;7477;45.222;5.688;2022-08-04T23:21:24;28.30;66.70
14771;DHT22;7477;45.222;5.688;2022-08-04T23:24:43;28.30;67.10
14771;DHT22;7477;45.222;5.688;2022-08-04T23:28:02;28.30;67.10
14771;DHT22;7477;45.222;5.688;2022-08-04T23:31:23;28.30;67.10
14771;DHT22;7477;45.222;5.688;2022-08-04T23:34:42;28.20;66.80
14771;DHT22;7477;45.222;5.688;2022-08-04T23:38:02;28.20;66.80
14771;DHT22;7477;45.222;5.688;2022-08-04T23:41:21;28.20;66.90
14771;DHT22;7477;45.222;5.688;2022-08-04T23:44:40;28.10;66.90
14771;DHT22;7477;45.222;5.688;2022-08-04T23:47:59;28.20;66.90
14771;DHT22;7477;45.222;5.688;2022-08-04T23:51:19;28.10;66.90
14771;DHT22;7477;45.222;5.688;2022-08-04T23:54:38;27.90;66.30
14771;DHT22;7477;45.222;5.688;2022-08-04T23:57:57;28.00;66.90
